createdAt,value
2023-03-04T00:01:35.469Z,12.75
2023-03-04T00:04:03.898Z,10.98
2023-03-04T00:06:33.515Z,10.40
2023-03-04T00:09:03.906Z,9.18
2023-03-04T00:11:32.498Z,13.80
2023-03-04T00:14:00.651Z,9.30
2023-03-04T00:16:28.733Z,10.65
2023-03-04T00:18:57.883Z,11.63
2023-03-04T00:21:26.117Z,10.77
2023-03-04T00:23:55.539Z,11.73
2023-03-04T00:26:24.012Z,11.95
2023-03-04T00:28:52.394Z,12.25
2023-03-04T00:31:20.511Z,13.40
2023-03-04T00:33:48.796Z,10.20
2023-03-04T00:36:16.836Z,11.50
2023-03-04T00:38:44.821Z,13.82
2023-03-04T00:41:14.550Z,11.73
2023-03-04T00:43:42.941Z,12.88
2023-03-04T00:46:11.355Z,10.48
2023-03-04T00:48:39.797Z,10.00
2023-03-04T00:51:07.882Z,8.32
2023-03-04T00:53:36.127Z,10.35
2023-03-04T00:56:04.977Z,11.00
2023-03-04T00:58:34.305Z,10.73
2023-03-04T01:01:02.567Z,12.10
2023-03-04T01:03:32.650Z,12.82
2023-03-04T01:06:00.935Z,11.85
2023-03-04T01:08:29.048Z,14.18
2023-03-04T01:10:57.401Z,11.52
2023-03-04T01:13:25.564Z,13.73
2023-03-04T01:15:56.014Z,10.73
2023-03-04T01:18:24.319Z,12.77
2023-03-04T01:20:52.868Z,10.68
2023-03-04T01:23:21.077Z,9.93
2023-03-04T01:25:49.622Z,9.73
2023-03-04T01:28:17.742Z,10.00
2023-03-04T01:30:45.742Z,11.82
2023-03-04T01:33:15.335Z,10.30
2023-03-04T01:35:43.638Z,11.85
2023-03-04T01:38:12.711Z,8.63
2023-03-04T01:40:41.335Z,15.75
2023-03-04T01:43:16.497Z,7.62
2023-03-04T01:45:44.932Z,9.60
2023-03-04T01:48:19.579Z,8.40
2023-03-04T01:50:48.122Z,10.25
2023-03-04T01:53:21.828Z,9.23
2023-03-04T01:55:51.347Z,10.45
2023-03-04T01:58:19.514Z,13.15
2023-03-04T02:00:47.596Z,14.40
2023-03-04T02:03:20.693Z,11.82
2023-03-04T02:05:51.414Z,12.55
2023-03-04T02:08:22.004Z,10.13
2023-03-04T02:10:52.054Z,9.80
2023-03-04T02:13:21.076Z,10.77
2023-03-04T02:15:49.596Z,9.30
2023-03-04T02:18:21.209Z,9.48
2023-03-04T02:21:01.661Z,12.65
2023-03-04T02:23:36.297Z,10.40
2023-03-04T02:26:17.370Z,15.80
2023-03-04T02:28:46.802Z,12.27
2023-03-04T02:31:24.665Z,13.48
2023-03-04T02:33:54.818Z,9.82
2023-03-04T02:36:24.430Z,13.85
2023-03-04T02:38:54.765Z,16.45
2023-03-04T02:41:27.256Z,12.10
2023-03-04T02:43:56.565Z,13.48
2023-03-04T02:46:25.578Z,10.05
2023-03-04T02:48:53.885Z,15.60
2023-03-04T02:51:22.276Z,10.50
2023-03-04T02:53:50.590Z,12.98
2023-03-04T02:56:18.834Z,14.87
2023-03-04T02:58:48.363Z,12.52
2023-03-04T03:01:16.691Z,10.45
2023-03-04T03:03:45.426Z,15.23
2023-03-04T03:06:13.418Z,8.27
2023-03-04T03:08:41.899Z,11.98
2023-03-04T03:11:09.985Z,11.88
2023-03-04T03:13:38.393Z,14.68
2023-03-04T03:16:08.334Z,11.68
2023-03-04T03:18:36.394Z,10.85
2023-03-04T03:21:07.184Z,14.13
2023-03-04T03:23:35.975Z,11.52
2023-03-04T03:26:04.472Z,14.60
2023-03-04T03:28:32.640Z,11.45
2023-03-04T03:31:01.458Z,10.85
2023-03-04T03:33:34.858Z,13.48
2023-03-04T03:36:03.340Z,15.82
2023-03-04T03:38:31.617Z,18.35
2023-03-04T03:40:59.702Z,14.35
2023-03-04T03:43:28.190Z,13.27
2023-03-04T03:45:56.322Z,10.82
2023-03-04T03:48:24.455Z,12.02
2023-03-04T03:50:54.081Z,14.40
2023-03-04T03:53:22.080Z,11.18
2023-03-04T03:55:50.090Z,12.13
2023-03-04T03:58:18.318Z,13.23
2023-03-04T04:00:46.353Z,10.80
2023-03-04T04:03:16.463Z,10.68
2023-03-04T04:05:44.884Z,12.57
2023-03-04T04:08:15.505Z,9.30
2023-03-04T04:10:44.701Z,14.50
2023-03-04T04:13:12.992Z,10.77
2023-03-04T04:15:41.054Z,8.50
2023-03-04T04:18:09.751Z,10.32
2023-03-04T04:20:38.557Z,12.35
2023-03-04T04:23:06.709Z,11.23
2023-03-04T04:25:36.337Z,6.45
2023-03-04T04:28:04.844Z,9.23
2023-03-04T04:30:32.946Z,7.37
2023-03-04T04:33:04.683Z,13.00
2023-03-04T04:35:33.372Z,9.57
2023-03-04T04:38:01.897Z,10.15
2023-03-04T04:40:30.064Z,8.85
2023-03-04T04:42:59.516Z,9.20
2023-03-04T04:45:28.133Z,11.75
2023-03-04T04:47:57.524Z,9.38
2023-03-04T04:50:25.821Z,10.15
2023-03-04T04:52:54.334Z,9.80
2023-03-04T04:55:22.470Z,8.55
2023-03-04T04:57:51.358Z,9.95
2023-03-04T05:00:21.839Z,9.10
2023-03-04T05:02:50.415Z,10.68
2023-03-04T05:05:18.879Z,6.80
2023-03-04T05:07:47.136Z,6.28
2023-03-04T05:10:15.569Z,10.07
2023-03-04T05:12:45.275Z,7.20
2023-03-04T05:15:13.784Z,7.37
2023-03-04T05:17:43.314Z,14.43
2023-03-04T05:20:12.533Z,10.45
2023-03-04T05:22:41.332Z,10.93
2023-03-04T05:25:10.649Z,9.27
2023-03-04T05:27:38.720Z,10.30
2023-03-04T05:30:08.230Z,13.52
2023-03-04T05:32:36.516Z,10.00
2023-03-04T05:35:06.954Z,13.25
2023-03-04T05:37:35.932Z,11.68
2023-03-04T05:40:04.866Z,10.27
2023-03-04T05:42:33.229Z,8.55
2023-03-04T05:45:01.504Z,10.43
2023-03-04T05:47:29.490Z,12.60
2023-03-04T05:49:58.126Z,12.88
2023-03-04T05:52:27.752Z,7.93
2023-03-04T05:54:55.745Z,7.85
2023-03-04T05:57:23.725Z,9.73
2023-03-04T05:59:52.021Z,9.77
2023-03-04T06:02:20.104Z,9.98
2023-03-04T06:04:48.376Z,9.98
2023-03-04T06:07:16.683Z,11.55
2023-03-04T06:09:46.168Z,11.88
2023-03-04T06:12:14.555Z,12.57
2023-03-04T06:14:42.581Z,10.38
2023-03-04T06:17:10.509Z,14.25
2023-03-04T06:19:39.024Z,7.28
2023-03-04T06:22:06.983Z,14.55
2023-03-04T06:24:35.164Z,13.45
2023-03-04T06:27:05.939Z,12.88
2023-03-04T06:29:34.125Z,7.87
2023-03-04T06:32:02.094Z,11.10
2023-03-04T06:34:30.423Z,13.50
2023-03-04T06:36:58.383Z,11.80
2023-03-04T06:39:26.550Z,7.87
2023-03-04T06:41:54.961Z,10.75
2023-03-04T06:44:31.115Z,10.52
2023-03-04T06:47:05.533Z,6.75
2023-03-04T06:49:33.605Z,10.75
2023-03-04T06:52:02.037Z,11.68
2023-03-04T06:54:30.893Z,12.55
2023-03-04T06:57:01.353Z,8.73
2023-03-04T06:59:31.140Z,9.57
2023-03-04T07:01:59.765Z,9.20
2023-03-04T07:04:33.989Z,8.10
2023-03-04T07:07:02.615Z,9.15
2023-03-04T07:09:37.009Z,10.43
2023-03-04T07:12:06.138Z,8.30
2023-03-04T07:14:36.887Z,6.37
2023-03-04T07:17:05.173Z,13.07
2023-03-04T07:19:33.235Z,13.05
2023-03-04T07:22:01.318Z,9.00
2023-03-04T07:24:29.634Z,8.38
2023-03-04T07:26:57.626Z,7.30
2023-03-04T07:29:25.693Z,7.37
2023-03-04T07:31:55.591Z,7.72
2023-03-04T07:34:23.889Z,9.10
2023-03-04T07:36:51.938Z,8.35
2023-03-04T07:39:20.202Z,6.85
2023-03-04T07:41:48.189Z,12.27
2023-03-04T07:44:16.257Z,12.27
2023-03-04T07:46:44.637Z,9.60
2023-03-04T07:49:14.877Z,8.38
2023-03-04T07:51:43.072Z,8.13
2023-03-04T07:54:12.145Z,11.65
2023-03-04T07:56:40.593Z,8.65
2023-03-04T07:59:08.756Z,8.85
2023-03-04T08:01:38.668Z,8.57
2023-03-04T08:04:08.659Z,7.22
2023-03-04T08:06:38.082Z,6.40
2023-03-04T08:09:08.006Z,7.70
2023-03-04T08:11:38.520Z,10.98
2023-03-04T08:14:07.216Z,4.37
2023-03-04T08:16:35.203Z,12.13
2023-03-04T08:19:04.768Z,8.82
2023-03-04T08:21:33.368Z,7.62
2023-03-04T08:24:08.520Z,10.98
2023-03-04T08:26:41.334Z,5.35
2023-03-04T08:29:11.214Z,8.32
2023-03-04T08:31:40.374Z,6.80
2023-03-04T08:34:10.238Z,7.35
2023-03-04T08:36:38.341Z,4.72
2023-03-04T08:39:07.977Z,8.80
2023-03-04T08:41:36.138Z,8.52
2023-03-04T08:44:04.411Z,3.85
2023-03-04T08:46:32.764Z,5.95
2023-03-04T08:49:00.863Z,11.50
2023-03-04T08:51:28.998Z,7.57
2023-03-04T08:53:57.298Z,8.18
2023-03-04T08:56:26.718Z,6.32
2023-03-04T08:58:54.775Z,4.90
2023-03-04T09:01:23.211Z,7.57
2023-03-04T09:03:51.410Z,5.40
2023-03-04T09:06:19.897Z,5.80
2023-03-04T09:08:48.161Z,7.70
2023-03-04T09:11:16.739Z,5.60
2023-03-04T09:13:46.150Z,5.62
2023-03-04T09:16:16.049Z,5.03
2023-03-04T09:18:44.578Z,6.87
2023-03-04T09:21:12.753Z,6.55
2023-03-04T09:23:41.037Z,7.15
2023-03-04T09:26:17.596Z,4.53
2023-03-04T09:28:47.128Z,8.63
2023-03-04T09:31:15.663Z,4.62
2023-03-04T09:33:43.931Z,6.22
2023-03-04T09:36:13.866Z,8.45
2023-03-04T09:38:43.570Z,4.85
2023-03-04T09:41:17.820Z,6.37
2023-03-04T09:43:48.422Z,5.55
2023-03-04T09:46:19.433Z,3.47
2023-03-04T09:48:50.943Z,3.90
2023-03-04T09:51:23.104Z,2.50
2023-03-04T09:54:07.574Z,0.93
2023-03-04T09:56:39.242Z,5.43
2023-03-04T09:59:19.376Z,3.30
2023-03-04T10:01:51.943Z,4.53
2023-03-04T10:04:32.870Z,4.28
2023-03-04T10:07:02.253Z,2.65
2023-03-04T10:09:38.700Z,0.62
2023-03-04T10:12:13.054Z,2.28
2023-03-04T10:14:51.192Z,2.37
2023-03-04T10:17:23.568Z,2.35
2023-03-04T10:20:03.016Z,1.58
2023-03-04T10:22:36.236Z,1.65
2023-03-04T10:25:17.542Z,2.03
2023-03-04T10:27:51.636Z,3.47
2023-03-04T10:30:31.854Z,0.90
2023-03-04T10:32:59.991Z,2.22
2023-03-04T10:35:35.407Z,3.83
2023-03-04T10:38:04.962Z,3.15
2023-03-04T10:40:39.748Z,0.77
2023-03-04T10:43:14.657Z,3.75
2023-03-04T10:45:44.607Z,0.88
2023-03-04T10:48:21.280Z,1.02
2023-03-04T10:50:49.818Z,0.98
2023-03-04T10:53:34.379Z,4.65
2023-03-04T10:56:03.147Z,1.67
2023-03-04T10:58:35.972Z,4.85
2023-03-04T11:01:07.409Z,2.83
2023-03-04T11:03:37.634Z,2.35
2023-03-04T11:06:13.493Z,4.35
2023-03-04T11:08:42.288Z,1.62
2023-03-04T11:11:24.892Z,1.40
2023-03-04T11:13:57.268Z,2.97
2023-03-04T11:16:29.676Z,2.65
2023-03-04T11:19:03.945Z,1.08
2023-03-04T11:21:40.258Z,1.75
2023-03-04T11:24:27.604Z,3.42
2023-03-04T11:27:04.544Z,2.10
2023-03-04T11:29:37.171Z,7.20
2023-03-04T11:32:14.197Z,6.82
2023-03-04T11:34:51.328Z,7.57
2023-03-04T11:37:26.389Z,1.10
2023-03-04T11:39:59.483Z,1.67
2023-03-04T11:42:36.389Z,2.90
2023-03-04T11:45:05.198Z,0.60
2023-03-04T11:47:50.547Z,1.37
2023-03-04T11:50:28.875Z,1.60
2023-03-04T11:53:34.631Z,4.15
2023-03-04T11:56:27.984Z,3.50
2023-03-04T11:59:27.276Z,3.60
2023-03-04T12:02:11.883Z,1.27
2023-03-04T12:05:26.114Z,4.97
2023-03-04T12:08:12.195Z,1.08
2023-03-04T12:10:46.029Z,2.80
2023-03-04T12:13:34.783Z,3.35
2023-03-04T12:16:19.485Z,2.28
2023-03-04T12:19:02.429Z,1.90
2023-03-04T12:21:57.543Z,2.72
2023-03-04T12:24:49.054Z,3.17
2023-03-04T12:27:25.340Z,4.53
2023-03-04T12:29:59.776Z,0.90
2023-03-04T12:32:38.049Z,2.05
2023-03-04T12:35:24.910Z,1.67
2023-03-04T12:38:18.441Z,11.18
2023-03-04T12:40:53.792Z,5.72
2023-03-04T12:43:43.119Z,5.95
2023-03-04T12:46:24.210Z,3.85
2023-03-04T12:49:03.709Z,2.80
2023-03-04T12:51:37.418Z,2.42
2023-03-04T12:54:26.019Z,2.50
2023-03-04T12:56:58.469Z,3.70
2023-03-04T12:59:29.894Z,4.45
2023-03-04T13:02:11.070Z,3.58
2023-03-04T13:04:51.636Z,3.10
2023-03-04T13:07:34.682Z,5.40
2023-03-04T13:10:11.712Z,5.57
2023-03-04T13:12:50.985Z,2.75
2023-03-04T13:15:32.849Z,4.68
2023-03-04T13:18:02.933Z,3.05
2023-03-04T13:20:38.239Z,2.15
2023-03-04T13:23:26.861Z,2.83
2023-03-04T13:26:21.501Z,4.25
2023-03-04T13:28:55.183Z,6.22
2023-03-04T13:31:30.045Z,4.37
2023-03-04T13:34:01.469Z,3.40
2023-03-04T13:36:54.946Z,2.87
2023-03-04T13:39:26.505Z,4.40
2023-03-04T13:41:57.654Z,4.07
2023-03-04T13:45:01.155Z,3.15
2023-03-04T13:47:46.365Z,3.33
2023-03-04T13:50:29.856Z,8.07
2023-03-04T13:53:02.004Z,5.95
2023-03-04T13:55:40.061Z,6.28
2023-03-04T13:58:21.436Z,3.12
2023-03-04T14:00:51.962Z,5.10
2023-03-04T14:03:23.686Z,4.30
2023-03-04T14:06:13.644Z,2.67
2023-03-04T14:08:49.050Z,4.15
2023-03-04T14:11:25.312Z,3.65
2023-03-04T14:13:58.102Z,5.15
2023-03-04T14:16:30.027Z,4.30
2023-03-04T14:19:00.706Z,2.85
2023-03-04T14:21:29.714Z,2.87
2023-03-04T14:24:03.809Z,1.95
2023-03-04T14:26:33.114Z,1.15
2023-03-04T14:29:04.457Z,0.70
2023-03-04T14:31:36.913Z,3.33
2023-03-04T14:34:08.687Z,2.30
2023-03-04T14:36:44.953Z,2.12
2023-03-04T14:39:17.775Z,2.17
2023-03-04T14:41:51.248Z,1.50
2023-03-04T14:44:30.290Z,2.00
2023-03-04T14:47:11.079Z,1.27
2023-03-04T14:49:42.397Z,1.80
2023-03-04T14:52:38.237Z,0.98
2023-03-04T14:55:22.193Z,1.95
2023-03-04T14:57:58.209Z,1.70
2023-03-04T15:00:31.026Z,1.60
2023-03-04T15:03:00.977Z,0.88
2023-03-04T15:05:32.057Z,0.90
2023-03-04T15:08:02.846Z,2.58
2023-03-04T15:10:33.089Z,2.85
2023-03-04T15:13:03.974Z,6.68
2023-03-04T15:15:42.564Z,5.47
2023-03-04T15:18:19.956Z,6.05
2023-03-04T15:20:55.240Z,2.92
2023-03-04T15:23:23.495Z,3.78
2023-03-04T15:25:57.112Z,2.42
2023-03-04T15:28:26.500Z,3.42
2023-03-04T15:30:55.922Z,3.97
2023-03-04T15:33:24.583Z,4.10
2023-03-04T15:35:56.994Z,3.40
2023-03-04T15:38:25.877Z,2.75
2023-03-04T15:40:55.087Z,3.17
2023-03-04T15:43:24.582Z,3.65
2023-03-04T15:45:54.124Z,2.53
2023-03-04T15:48:23.696Z,3.22
2023-03-04T15:50:56.696Z,3.92
2023-03-04T15:53:33.376Z,1.50
2023-03-04T15:56:03.066Z,3.90
2023-03-04T15:58:35.018Z,2.25
2023-03-04T16:01:03.728Z,5.12
2023-03-04T16:03:33.772Z,3.20
2023-03-04T16:06:01.941Z,1.95
2023-03-04T16:08:30.023Z,1.37
2023-03-04T16:10:58.326Z,3.83
2023-03-04T16:13:26.306Z,9.05
2023-03-04T16:15:54.367Z,7.93
2023-03-04T16:18:23.760Z,4.47
2023-03-04T16:20:53.329Z,4.62
2023-03-04T16:23:24.002Z,6.15
2023-03-04T16:25:56.157Z,1.30
2023-03-04T16:28:24.644Z,1.35
2023-03-04T16:30:53.088Z,1.15
2023-03-04T16:33:21.133Z,3.58
2023-03-04T16:35:51.573Z,3.20
2023-03-04T16:38:26.164Z,2.33
2023-03-04T16:40:55.390Z,2.25
2023-03-04T16:43:23.882Z,3.12
2023-03-04T16:45:52.070Z,1.37
2023-03-04T16:48:21.078Z,2.00
2023-03-04T16:50:49.358Z,1.95
2023-03-04T16:53:34.758Z,2.53
2023-03-04T16:56:06.660Z,4.57
2023-03-04T16:58:35.022Z,1.45
2023-03-04T17:01:03.942Z,5.22
2023-03-04T17:03:32.103Z,1.10
2023-03-04T17:06:00.181Z,2.40
2023-03-04T17:08:29.705Z,6.82
2023-03-04T17:10:57.913Z,3.15
2023-03-04T17:13:25.909Z,1.98
2023-03-04T17:15:54.308Z,6.45
2023-03-04T17:18:22.335Z,2.62
2023-03-04T17:20:50.335Z,4.22
2023-03-04T17:23:18.576Z,3.67
2023-03-04T17:25:56.367Z,4.57
2023-03-04T17:28:24.618Z,6.30
2023-03-04T17:30:52.735Z,2.05
2023-03-04T17:33:20.898Z,4.40
2023-03-04T17:35:49.294Z,8.60
2023-03-04T17:38:17.386Z,5.65
2023-03-04T17:40:45.662Z,4.15
2023-03-04T17:43:15.287Z,5.35
2023-03-04T17:45:44.164Z,6.55
2023-03-04T17:48:15.131Z,10.85
2023-03-04T17:50:50.020Z,11.70
2023-03-04T17:53:18.449Z,8.93
2023-03-04T17:55:50.620Z,9.68
2023-03-04T17:58:20.235Z,3.78
2023-03-04T18:00:53.503Z,6.18
2023-03-04T18:03:22.069Z,4.72
2023-03-04T18:05:50.146Z,3.17
2023-03-04T18:08:18.440Z,1.73
2023-03-04T18:10:46.850Z,5.68
2023-03-04T18:13:15.114Z,7.75
2023-03-04T18:15:44.716Z,3.90
2023-03-04T18:18:13.240Z,1.67
2023-03-04T18:20:41.592Z,6.43
2023-03-04T18:23:09.783Z,2.53
2023-03-04T18:25:38.180Z,4.65
2023-03-04T18:28:06.760Z,7.00
2023-03-04T18:30:35.054Z,7.68
2023-03-04T18:33:04.952Z,3.87
2023-03-04T18:35:33.519Z,4.28
2023-03-04T18:38:01.802Z,5.40
2023-03-04T18:40:31.618Z,4.65
2023-03-04T18:43:00.196Z,5.78
2023-03-04T18:45:28.784Z,5.57
2023-03-04T18:47:57.921Z,1.50
2023-03-04T18:50:27.416Z,8.93
2023-03-04T18:52:55.624Z,1.42
2023-03-04T18:55:24.704Z,7.87
2023-03-04T18:57:56.264Z,5.75
2023-03-04T19:00:25.872Z,2.97
2023-03-04T19:02:58.865Z,5.50
2023-03-04T19:05:31.440Z,2.35
2023-03-04T19:07:59.819Z,2.70
2023-03-04T19:10:29.111Z,5.65
2023-03-04T19:12:59.450Z,7.85
2023-03-04T19:15:28.094Z,2.25
2023-03-04T19:17:56.080Z,2.62
2023-03-04T19:20:24.286Z,3.90
2023-03-04T19:22:54.619Z,3.62
2023-03-04T19:25:22.829Z,4.07
2023-03-04T19:27:55.237Z,2.40
2023-03-04T19:30:23.996Z,7.50
2023-03-04T19:32:52.102Z,5.72
2023-03-04T19:35:20.475Z,3.70
2023-03-04T19:37:48.755Z,4.87
2023-03-04T19:40:18.454Z,2.72
2023-03-04T19:42:46.595Z,6.95
2023-03-04T19:45:14.978Z,4.05
2023-03-04T19:47:43.102Z,1.80
2023-03-04T19:50:13.531Z,2.80
2023-03-04T19:52:41.807Z,6.70
2023-03-04T19:55:12.756Z,3.33
2023-03-04T19:57:42.755Z,2.65
2023-03-04T20:00:13.049Z,7.70
2023-03-04T20:02:43.081Z,4.72
2023-03-04T20:05:12.389Z,5.57
2023-03-04T20:07:40.974Z,7.68
2023-03-04T20:10:11.325Z,6.35
2023-03-04T20:12:39.330Z,4.47
2023-03-04T20:15:09.940Z,8.60
2023-03-04T20:17:38.140Z,2.58
2023-03-04T20:20:10.552Z,4.15
2023-03-04T20:22:39.502Z,5.87
2023-03-04T20:25:07.927Z,5.12
2023-03-04T20:27:35.964Z,3.53
2023-03-04T20:30:04.918Z,2.62
2023-03-04T20:32:34.387Z,11.07
2023-03-04T20:35:02.378Z,3.92
2023-03-04T20:37:30.690Z,7.50
2023-03-04T20:39:58.875Z,8.18
2023-03-04T20:42:26.942Z,4.28
2023-03-04T20:44:55.252Z,7.80
2023-03-04T20:47:23.210Z,7.32
2023-03-04T20:49:53.540Z,7.82
2023-03-04T20:52:21.845Z,7.32
2023-03-04T20:54:50.111Z,2.97
2023-03-04T20:57:18.541Z,5.62
2023-03-04T20:59:46.802Z,5.95
2023-03-04T21:02:17.100Z,4.18
2023-03-04T21:04:45.461Z,4.35
2023-03-04T21:07:15.269Z,3.37
2023-03-04T21:09:43.980Z,7.62
2023-03-04T21:12:11.987Z,6.30
2023-03-04T21:14:40.740Z,6.87
2023-03-04T21:17:08.820Z,3.00
2023-03-04T21:19:40.011Z,9.10
2023-03-04T21:22:08.699Z,3.50
2023-03-04T21:24:39.824Z,5.45
2023-03-04T21:27:08.509Z,5.35
2023-03-04T21:29:37.226Z,5.03
2023-03-04T21:32:22.696Z,6.53
2023-03-04T21:34:54.468Z,2.80
2023-03-04T21:37:23.866Z,4.28
2023-03-04T21:39:54.217Z,0.50
2023-03-04T21:42:22.351Z,6.70
2023-03-04T21:44:51.650Z,6.47
2023-03-04T21:47:20.395Z,6.20
2023-03-04T21:49:48.935Z,9.50
2023-03-04T21:52:17.980Z,6.12
2023-03-04T21:54:46.316Z,3.33
2023-03-04T21:57:15.942Z,9.38
2023-03-04T21:59:43.938Z,1.30
2023-03-04T22:02:15.551Z,6.45
2023-03-04T22:04:43.980Z,2.22
2023-03-04T22:07:12.450Z,4.40
2023-03-04T22:09:40.792Z,9.27
2023-03-04T22:12:09.263Z,8.73
2023-03-04T22:14:39.472Z,3.65
2023-03-04T22:17:07.823Z,5.55
2023-03-04T22:19:36.133Z,5.55
2023-03-04T22:22:04.103Z,7.78
2023-03-04T22:24:32.143Z,5.87
2023-03-04T22:27:00.373Z,2.90
2023-03-04T22:29:28.844Z,1.55
2023-03-04T22:31:58.320Z,5.90
2023-03-04T22:34:26.738Z,2.33
2023-03-04T22:36:54.782Z,3.62
2023-03-04T22:39:23.458Z,3.55
2023-03-04T22:41:51.810Z,3.80
2023-03-04T22:44:20.043Z,5.18
2023-03-04T22:46:48.366Z,5.07
2023-03-04T22:49:18.165Z,5.55
2023-03-04T22:51:46.362Z,6.05
2023-03-04T22:54:15.871Z,6.07
2023-03-04T22:56:44.332Z,3.55
2023-03-04T22:59:12.817Z,2.65
2023-03-04T23:01:41.023Z,3.67
2023-03-04T23:04:10.824Z,1.80
2023-03-04T23:06:40.168Z,6.22
2023-03-04T23:09:08.442Z,6.78
2023-03-04T23:11:37.117Z,3.62
2023-03-04T23:14:07.256Z,2.17
2023-03-04T23:16:37.330Z,8.48
2023-03-04T23:19:06.538Z,8.60
2023-03-04T23:21:38.142Z,4.43
2023-03-04T23:24:10.007Z,3.90
2023-03-04T23:26:40.257Z,5.07
2023-03-04T23:29:10.425Z,4.40
2023-03-04T23:31:38.758Z,4.28
2023-03-04T23:34:07.153Z,6.45
2023-03-04T23:36:37.483Z,4.18
2023-03-04T23:39:08.068Z,1.55
2023-03-04T23:41:37.147Z,4.57
2023-03-04T23:44:05.764Z,5.15
2023-03-04T23:46:34.050Z,4.22
2023-03-04T23:49:02.431Z,2.80
2023-03-04T23:51:31.289Z,4.53
2023-03-04T23:53:59.933Z,4.62
2023-03-04T23:56:31.635Z,1.73
2023-03-04T23:59:00.731Z,6.25
